Hlavní strana
METAR-TAF:

METAR-TAF

Letiště :

Letiště Adolfa Suáreze

Madrid, Španělsko

zeměpisná šířka: 40-27N, zeměpisná délka: 003-33W, výška: 609 m

Aktuální stav počasí

Zpráva byla vytvořena před 27 minutami, v 13:30 UTC
Západojihozápadní vítr 1 kt
Teplota 16°C
Vlhkost vzduchu 36%
Tlak 1028 hPa
Viditelnost 10 km a více
Žádná oblačnost pod 1500 m, nevyskytují se cumulonimby.

METAR: LEMD 101330Z 25001KT CAVOK 16/01 Q1028 NOSIG

Čas: 14:57 (13:57 UTC)

Předpověď počasí

Zpráva byla vytvořena před 2 hodinami a 57 minutami, v 11:00 UTC
Předpověď platná od 10 v 12 UTC do 11 v 18 UTC
vítr z různých směrů 3 kt
Viditelnost 10 km a více
Žádná oblačnost pod 1500 m, nevyskytují se cumulonimby.

TAF: LEMD 101100Z 1012/1118 VRB03KT CAVOK TX15/1015Z TNM01/1106Z

Stav a předpovědi počasí z více než 4 000 letišť (zprávy METAR a TAF).

Červené a žluté tečky na mapě představují dostupné meteorologické stanice.

Když kurzor umístíte na tečku, zobrazí se název stanice.

Pak kliknutím zobrazíte stav a předpověď počasí.

Chcete-li změnit mapu, kliknutím na zelené tlačítko se znaménkem +mapu přiblížíte, kliknutím na zelené tlačítko se znaménkem – mapu oddálíte a kliknutím na zelené šipky přejdete na sousední mapy.


METAR-TAF: